createdAt,value
2023-05-09T00:02:43.678Z,16.80
2023-05-09T00:05:48.392Z,16.80
2023-05-09T00:08:50.611Z,16.70
2023-05-09T00:11:52.685Z,16.70
2023-05-09T00:14:55.458Z,16.70
2023-05-09T00:17:57.815Z,16.70
2023-05-09T00:21:00.298Z,16.60
2023-05-09T00:24:02.902Z,16.60
2023-05-09T00:27:05.182Z,16.70
2023-05-09T00:30:08.178Z,16.60
2023-05-09T00:33:10.603Z,16.50
2023-05-09T00:36:12.825Z,16.50
2023-05-09T00:39:14.968Z,16.30
2023-05-09T00:42:17.313Z,16.30
2023-05-09T00:45:19.540Z,16.30
2023-05-09T00:48:21.925Z,16.40
2023-05-09T00:51:24.236Z,16.40
2023-05-09T00:54:26.870Z,16.40
2023-05-09T00:57:29.227Z,16.20
2023-05-09T01:00:31.545Z,15.90
2023-05-09T01:03:33.838Z,15.80
2023-05-09T01:06:54.235Z,15.70
2023-05-09T01:09:58.460Z,15.50
2023-05-09T01:13:15.998Z,15.60
2023-05-09T01:16:31.490Z,15.70
2023-05-09T01:20:06.165Z,15.90
2023-05-09T01:23:36.667Z,16.10
2023-05-09T01:26:44.605Z,16.10
2023-05-09T01:29:49.018Z,16.20
2023-05-09T01:32:52.345Z,16.20
2023-05-09T01:36:04.163Z,16.30
2023-05-09T01:39:07.900Z,16.40
2023-05-09T01:42:12.076Z,16.30
2023-05-09T01:45:15.169Z,16.40
2023-05-09T01:48:18.360Z,16.40
2023-05-09T01:51:22.228Z,16.40
2023-05-09T01:54:24.732Z,16.40
2023-05-09T01:57:29.721Z,16.40
2023-05-09T02:00:36.903Z,16.40
2023-05-09T02:03:40.487Z,16.20
2023-05-09T02:06:44.230Z,15.90
2023-05-09T02:09:47.605Z,15.80
2023-05-09T02:12:49.874Z,15.90
2023-05-09T02:15:51.959Z,15.90
2023-05-09T02:18:54.090Z,15.80
2023-05-09T02:21:57.134Z,15.90
2023-05-09T02:24:59.702Z,16.00
2023-05-09T02:28:03.010Z,16.00
2023-05-09T02:31:06.652Z,16.00
2023-05-09T02:34:12.272Z,16.00
2023-05-09T02:37:15.544Z,16.10
2023-05-09T02:40:19.566Z,16.10
2023-05-09T02:43:21.975Z,16.00
2023-05-09T02:46:24.329Z,15.80
2023-05-09T02:49:32.479Z,16.00
2023-05-09T02:52:36.729Z,16.20
2023-05-09T02:55:38.905Z,16.20
2023-05-09T02:58:41.098Z,16.30
2023-05-09T03:01:43.328Z,16.20
2023-05-09T03:04:45.984Z,16.10
2023-05-09T03:07:48.169Z,16.10
2023-05-09T03:10:50.347Z,16.00
2023-05-09T03:13:52.687Z,16.00
2023-05-09T03:16:54.798Z,15.90
2023-05-09T03:20:04.156Z,16.00
2023-05-09T03:23:06.666Z,16.20
2023-05-09T03:26:09.385Z,16.20
2023-05-09T03:29:12.243Z,16.30
2023-05-09T03:32:15.289Z,16.20
2023-05-09T03:35:18.303Z,16.10
2023-05-09T03:38:20.536Z,16.10
2023-05-09T03:41:22.689Z,16.20
2023-05-09T03:44:25.081Z,16.20
2023-05-09T03:47:28.307Z,16.10
2023-05-09T03:50:30.691Z,16.20
2023-05-09T03:53:34.206Z,16.30
2023-05-09T03:56:36.617Z,16.40
2023-05-09T03:59:39.237Z,16.40
2023-05-09T04:02:42.489Z,16.30
2023-05-09T04:05:52.236Z,16.30
2023-05-09T04:09:06.491Z,16.40
2023-05-09T04:12:09.352Z,16.40
2023-05-09T04:15:12.334Z,16.50
2023-05-09T04:18:15.250Z,16.60
2023-05-09T04:21:17.461Z,16.60
2023-05-09T04:24:23.400Z,16.70
2023-05-09T04:27:25.970Z,16.80
2023-05-09T04:30:28.388Z,16.90
2023-05-09T04:33:31.255Z,16.90
2023-05-09T04:36:36.860Z,16.90
2023-05-09T04:39:39.749Z,16.90
2023-05-09T04:42:50.240Z,17.00
2023-05-09T04:45:54.926Z,17.00
2023-05-09T04:48:57.108Z,17.00
2023-05-09T04:51:59.298Z,17.10
2023-05-09T04:55:01.875Z,17.20
2023-05-09T04:58:10.056Z,17.20
2023-05-09T05:01:12.615Z,17.20
2023-05-09T05:04:17.905Z,17.20
2023-05-09T05:07:20.115Z,17.20
2023-05-09T05:10:22.829Z,17.30
2023-05-09T05:13:30.636Z,17.20
2023-05-09T05:16:36.146Z,17.30
2023-05-09T05:19:39.094Z,17.30
2023-05-09T05:22:43.358Z,17.30
2023-05-09T05:25:45.996Z,17.40
2023-05-09T05:28:49.528Z,17.40
2023-05-09T05:31:51.802Z,17.40
2023-05-09T05:34:55.525Z,17.40
2023-05-09T05:37:57.890Z,17.50
2023-05-09T05:41:01.227Z,17.50
2023-05-09T05:44:05.594Z,17.60
2023-05-09T05:47:08.981Z,17.60
2023-05-09T05:50:11.168Z,17.60
2023-05-09T05:53:14.081Z,17.70
2023-05-09T05:56:16.484Z,17.70
2023-05-09T05:59:18.600Z,17.80
2023-05-09T06:02:20.980Z,17.90
2023-05-09T06:05:23.893Z,17.90
2023-05-09T06:08:27.350Z,17.90
2023-05-09T06:11:29.429Z,17.90
2023-05-09T06:14:31.818Z,18.00
2023-05-09T06:17:35.123Z,18.00
2023-05-09T06:20:37.362Z,18.00
2023-05-09T06:23:47.277Z,18.00
2023-05-09T06:26:53.056Z,17.90
2023-05-09T06:29:59.704Z,17.90
2023-05-09T06:33:02.459Z,17.90
2023-05-09T06:36:04.564Z,18.00
2023-05-09T06:39:06.900Z,18.00
2023-05-09T06:42:09.142Z,18.00
2023-05-09T06:45:14.283Z,18.00
2023-05-09T06:48:16.582Z,18.10
2023-05-09T06:51:18.684Z,18.10
2023-05-09T06:54:20.788Z,18.20
2023-05-09T06:57:23.305Z,18.20
2023-05-09T07:00:25.424Z,18.30
2023-05-09T07:03:27.924Z,18.40
2023-05-09T07:06:29.961Z,18.40
2023-05-09T07:09:32.311Z,18.50
2023-05-09T07:12:34.617Z,18.80
2023-05-09T07:15:42.239Z,18.90
2023-05-09T07:18:45.198Z,18.90
2023-05-09T07:21:47.569Z,19.20
2023-05-09T07:24:49.971Z,19.20
2023-05-09T07:27:52.140Z,19.20
2023-05-09T07:30:57.241Z,19.40
2023-05-09T07:33:59.424Z,19.70
2023-05-09T07:37:01.596Z,19.80
2023-05-09T07:40:04.132Z,19.90
2023-05-09T07:43:06.361Z,19.90
2023-05-09T07:46:08.561Z,19.70
2023-05-09T07:49:10.781Z,19.70
2023-05-09T07:52:12.855Z,19.60
2023-05-09T07:55:15.216Z,19.50
2023-05-09T07:58:17.688Z,19.70
2023-05-09T08:01:19.779Z,19.90
2023-05-09T08:04:23.249Z,20.10
2023-05-09T08:07:25.618Z,20.20
2023-05-09T08:10:27.913Z,20.80
2023-05-09T08:13:30.267Z,21.30
2023-05-09T08:16:32.690Z,21.40
2023-05-09T08:19:34.869Z,21.20
2023-05-09T08:22:39.495Z,21.40
2023-05-09T08:25:44.132Z,21.30
2023-05-09T08:28:46.347Z,21.10
2023-05-09T08:31:48.611Z,21.00
2023-05-09T08:34:51.256Z,21.00
2023-05-09T08:37:53.569Z,21.70
2023-05-09T08:41:01.414Z,22.20
2023-05-09T08:44:03.722Z,22.30
2023-05-09T08:47:05.952Z,22.80
2023-05-09T08:50:09.617Z,23.20
2023-05-09T08:53:15.211Z,24.10
2023-05-09T08:56:17.914Z,24.40
2023-05-09T08:59:20.084Z,24.10
2023-05-09T09:02:22.555Z,23.70
2023-05-09T09:05:40.276Z,23.50
2023-05-09T09:08:46.004Z,23.90
2023-05-09T09:11:48.867Z,23.90
2023-05-09T09:14:56.843Z,23.50
2023-05-09T09:18:05.329Z,23.20
2023-05-09T09:21:11.944Z,22.80
2023-05-09T09:24:14.697Z,22.60
2023-05-09T09:27:17.115Z,22.70
2023-05-09T09:30:19.448Z,22.60
2023-05-09T09:33:23.320Z,22.80
2023-05-09T09:36:32.705Z,23.10
2023-05-09T09:39:34.954Z,22.90
2023-05-09T09:42:44.808Z,23.00
2023-05-09T09:45:50.810Z,22.90
2023-05-09T09:48:53.134Z,22.90
2023-05-09T09:51:56.941Z,22.40
2023-05-09T09:55:00.869Z,22.40
2023-05-09T09:58:03.041Z,22.60
2023-05-09T10:01:09.286Z,22.80
2023-05-09T10:04:16.405Z,22.80
2023-05-09T10:07:22.256Z,22.80
2023-05-09T10:10:33.320Z,22.50
2023-05-09T10:13:36.228Z,22.70
2023-05-09T10:16:43.647Z,22.70
2023-05-09T10:19:47.682Z,22.70
2023-05-09T10:22:54.602Z,22.60
2023-05-09T10:26:18.675Z,22.60
2023-05-09T10:29:24.206Z,22.60
2023-05-09T10:32:41.920Z,23.00
2023-05-09T10:35:47.717Z,23.50
2023-05-09T10:38:51.538Z,23.40
2023-05-09T10:41:54.412Z,23.10
2023-05-09T10:44:57.164Z,22.90
2023-05-09T10:48:00.878Z,22.90
2023-05-09T11:04:00.337Z,22.00
2023-05-09T11:07:02.401Z,21.70
2023-05-09T11:10:09.265Z,21.70
2023-05-09T11:13:11.305Z,21.60
2023-05-09T11:16:13.519Z,21.50
2023-05-09T11:19:53.902Z,21.50
2023-05-09T11:22:58.964Z,21.50
2023-05-09T11:26:08.375Z,21.50
2023-05-09T11:29:10.521Z,21.70
2023-05-09T11:32:14.550Z,21.70
2023-05-09T11:35:19.001Z,21.90
2023-05-09T11:38:21.962Z,21.70
2023-05-09T11:41:24.046Z,21.60
2023-05-09T11:44:26.918Z,21.70
2023-05-09T11:47:29.074Z,21.60
2023-05-09T11:50:31.178Z,21.50
2023-05-09T11:53:33.330Z,21.50
2023-05-09T11:56:36.458Z,21.30
2023-05-09T11:59:39.048Z,21.40
2023-05-09T12:02:43.726Z,21.50
2023-05-09T12:05:48.632Z,21.50
2023-05-09T12:08:50.651Z,21.60
2023-05-09T12:11:52.748Z,21.90
2023-05-09T12:14:54.874Z,21.90
2023-05-09T12:18:05.366Z,21.90
2023-05-09T12:21:07.768Z,22.00
2023-05-09T12:24:09.722Z,22.20
2023-05-09T12:27:11.867Z,22.10
2023-05-09T12:30:14.279Z,22.20
2023-05-09T12:33:16.899Z,22.00
2023-05-09T12:36:18.995Z,22.10
2023-05-09T12:39:22.011Z,22.20
2023-05-09T12:42:26.963Z,22.40
2023-05-09T12:45:31.909Z,22.20
2023-05-09T12:48:38.117Z,22.20
2023-05-09T12:51:49.391Z,22.30
2023-05-09T12:54:53.566Z,22.20
2023-05-09T12:58:01.146Z,22.20
2023-05-09T13:01:06.446Z,22.20
2023-05-09T13:04:09.163Z,22.20
2023-05-09T13:07:12.613Z,22.10
2023-05-09T13:10:16.353Z,22.00
2023-05-09T13:13:19.830Z,22.00
2023-05-09T13:16:22.397Z,22.10
2023-05-09T13:19:24.421Z,22.10
2023-05-09T13:22:26.379Z,22.00
2023-05-09T13:25:28.254Z,22.00
2023-05-09T13:28:30.216Z,22.10
2023-05-09T13:31:32.503Z,22.10
2023-05-09T13:34:34.640Z,22.00
2023-05-09T13:37:36.648Z,22.20
2023-05-09T13:40:38.619Z,22.30
2023-05-09T13:43:40.647Z,22.40
2023-05-09T13:46:42.636Z,22.40
2023-05-09T13:49:44.740Z,22.20
2023-05-09T13:52:46.888Z,22.10
2023-05-09T13:55:48.975Z,22.00
2023-05-09T13:58:51.021Z,22.00
2023-05-09T14:01:53.065Z,22.10
2023-05-09T14:04:55.079Z,22.20
2023-05-09T14:07:57.120Z,22.10
2023-05-09T14:10:59.076Z,22.10
2023-05-09T14:14:01.125Z,22.10
2023-05-09T14:17:03.109Z,22.20
2023-05-09T14:20:05.603Z,22.30
2023-05-09T14:23:07.669Z,22.30
2023-05-09T14:26:09.885Z,22.40
2023-05-09T14:29:11.826Z,22.30
2023-05-09T14:32:14.549Z,22.40
2023-05-09T14:35:16.828Z,22.40
2023-05-09T14:38:19.043Z,22.50
2023-05-09T14:41:21.495Z,22.50
2023-05-09T14:44:23.752Z,22.50
2023-05-09T14:47:25.705Z,22.60
2023-05-09T14:50:27.928Z,22.50
2023-05-09T14:53:30.096Z,22.40
2023-05-09T14:56:32.235Z,22.40
2023-05-09T14:59:36.659Z,22.40
2023-05-09T15:02:40.047Z,22.30
2023-05-09T15:05:42.345Z,22.30
2023-05-09T15:08:44.477Z,22.40
2023-05-09T15:11:48.797Z,22.40
2023-05-09T15:14:51.327Z,22.50
2023-05-09T15:17:53.347Z,22.40
2023-05-09T15:20:55.948Z,22.40
2023-05-09T15:23:57.928Z,22.40
2023-05-09T15:27:00.284Z,22.50
2023-05-09T15:30:02.782Z,22.40
2023-05-09T15:33:05.124Z,22.40
2023-05-09T15:36:07.533Z,22.50
2023-05-09T15:39:09.946Z,22.40
2023-05-09T15:42:13.347Z,22.50
2023-05-09T15:45:15.814Z,22.40
2023-05-09T15:48:18.226Z,22.40
2023-05-09T15:51:20.322Z,22.40
2023-05-09T15:54:22.584Z,22.40
2023-05-09T15:57:24.734Z,22.40
2023-05-09T16:00:27.848Z,22.30
2023-05-09T16:03:30.190Z,22.20
2023-05-09T16:06:32.511Z,22.30
2023-05-09T16:09:34.737Z,22.30
2023-05-09T16:12:37.142Z,22.20
2023-05-09T16:15:39.468Z,22.20
2023-05-09T16:18:41.649Z,22.10
2023-05-09T16:21:46.580Z,22.00
2023-05-09T16:24:48.805Z,22.00
2023-05-09T16:27:50.938Z,22.00
2023-05-09T16:30:53.287Z,22.00
2023-05-09T16:33:55.300Z,22.00
2023-05-09T16:36:57.630Z,22.00
2023-05-09T16:40:00.214Z,21.90
2023-05-09T16:43:02.556Z,21.90
2023-05-09T16:46:04.954Z,21.90
2023-05-09T16:49:07.462Z,21.80
2023-05-09T16:52:10.160Z,21.70
2023-05-09T16:55:12.264Z,21.60
2023-05-09T16:58:14.579Z,21.50
2023-05-09T17:01:16.774Z,21.50
2023-05-09T17:04:19.082Z,21.30
2023-05-09T17:07:21.411Z,21.20
2023-05-09T17:10:23.629Z,21.10
2023-05-09T17:13:25.851Z,21.00
2023-05-09T17:16:28.220Z,20.90
2023-05-09T17:19:30.407Z,20.60
2023-05-09T17:22:32.638Z,20.40
2023-05-09T17:25:34.820Z,20.30
2023-05-09T17:28:36.915Z,20.10
2023-05-09T17:31:39.043Z,20.00
2023-05-09T17:34:41.220Z,19.80
2023-05-09T17:37:43.466Z,19.50
2023-05-09T17:40:45.806Z,19.40
2023-05-09T17:43:48.007Z,19.30
2023-05-09T17:46:50.720Z,19.10
2023-05-09T17:49:53.096Z,19.00
2023-05-09T17:52:56.942Z,19.00
2023-05-09T17:55:59.242Z,19.00
2023-05-09T17:59:03.901Z,18.90
2023-05-09T18:02:08.273Z,18.90
2023-05-09T18:05:10.721Z,18.90
2023-05-09T18:08:12.884Z,18.80
2023-05-09T18:11:14.924Z,18.80
2023-05-09T18:14:17.080Z,18.80
2023-05-09T18:17:19.631Z,18.70
2023-05-09T18:20:21.973Z,18.70
2023-05-09T18:23:28.089Z,18.70
2023-05-09T18:26:30.553Z,18.60
2023-05-09T18:29:32.777Z,18.70
2023-05-09T18:32:35.156Z,18.60
2023-05-09T18:35:37.778Z,18.50
2023-05-09T18:38:40.233Z,18.40
2023-05-09T18:41:42.671Z,18.40
2023-05-09T18:44:49.744Z,18.20
2023-05-09T18:47:52.146Z,18.40
2023-05-09T18:50:54.456Z,18.30
2023-05-09T18:53:57.487Z,18.20
2023-05-09T18:56:59.756Z,18.20
2023-05-09T19:00:01.965Z,18.20
2023-05-09T19:03:04.824Z,18.20
2023-05-09T19:06:09.918Z,18.10
2023-05-09T19:09:12.210Z,17.90
2023-05-09T19:12:14.522Z,18.00
2023-05-09T19:15:16.673Z,18.00
2023-05-09T19:18:18.747Z,18.00
2023-05-09T19:21:20.917Z,18.10
2023-05-09T19:24:23.075Z,18.00
2023-05-09T19:27:25.287Z,18.00
2023-05-09T19:30:27.639Z,17.90
2023-05-09T19:36:36.491Z,17.90
2023-05-09T19:39:38.687Z,17.90
2023-05-09T19:42:40.781Z,17.90
2023-05-09T19:45:43.399Z,17.90
2023-05-09T19:48:45.814Z,17.80
2023-05-09T19:51:48.092Z,17.90
2023-05-09T19:54:50.233Z,17.90
2023-05-09T19:57:52.463Z,17.90
2023-05-09T20:00:54.655Z,17.90
2023-05-09T20:03:56.939Z,17.80
2023-05-09T20:06:59.239Z,17.70
2023-05-09T20:10:01.280Z,17.80
2023-05-09T20:13:03.810Z,17.80
2023-05-09T20:16:06.439Z,17.80
2023-05-09T20:19:08.727Z,17.80
2023-05-09T20:22:10.873Z,17.80
2023-05-09T20:25:13.010Z,17.80
2023-05-09T20:28:15.280Z,17.80
2023-05-09T20:31:17.422Z,17.70
2023-05-09T20:34:22.487Z,17.70
2023-05-09T20:37:24.653Z,17.70
2023-05-09T20:40:27.584Z,17.80
2023-05-09T20:43:31.083Z,17.80
2023-05-09T20:46:33.390Z,17.70
2023-05-09T20:49:35.486Z,17.70
2023-05-09T20:52:40.879Z,17.60
2023-05-09T20:55:43.168Z,17.60
2023-05-09T20:58:45.424Z,17.70
2023-05-09T21:01:47.726Z,17.70
2023-05-09T21:04:50.318Z,17.70
2023-05-09T21:07:52.463Z,17.70
2023-05-09T21:10:54.647Z,17.60
2023-05-09T21:13:57.002Z,17.60
2023-05-09T21:16:59.158Z,17.60
2023-05-09T21:20:01.480Z,17.60
2023-05-09T21:23:03.592Z,17.60
2023-05-09T21:26:06.054Z,17.60
2023-05-09T21:29:08.305Z,17.60
2023-05-09T21:32:10.507Z,17.50
2023-05-09T21:35:12.891Z,17.50
2023-05-09T21:38:17.670Z,17.50
2023-05-09T21:41:19.820Z,17.50
2023-05-09T21:44:22.495Z,17.50
2023-05-09T21:47:24.986Z,17.50
2023-05-09T21:50:27.984Z,17.50
2023-05-09T21:53:30.458Z,17.50
2023-05-09T21:56:33.153Z,17.50
2023-05-09T21:59:35.754Z,17.40
2023-05-09T22:02:38.373Z,17.40
2023-05-09T22:05:40.641Z,17.40
2023-05-09T22:08:42.742Z,17.30
2023-05-09T22:11:45.026Z,17.30
2023-05-09T22:14:55.677Z,17.20
2023-05-09T22:17:58.683Z,17.10
2023-05-09T22:21:01.036Z,17.10
2023-05-09T22:24:03.339Z,17.20
2023-05-09T22:27:05.354Z,17.10
2023-05-09T22:30:08.205Z,17.00
2023-05-09T22:33:10.419Z,17.00
2023-05-09T22:36:13.178Z,17.00
2023-05-09T22:39:15.722Z,17.00
2023-05-09T22:42:17.925Z,16.90
2023-05-09T22:45:20.840Z,16.90
2023-05-09T22:48:23.371Z,16.90
2023-05-09T22:51:28.157Z,16.80
2023-05-09T22:54:30.337Z,16.80
2023-05-09T22:57:32.413Z,16.80
2023-05-09T23:00:34.674Z,16.70
2023-05-09T23:03:36.819Z,16.80
2023-05-09T23:06:39.140Z,16.70
2023-05-09T23:09:41.148Z,16.60
2023-05-09T23:12:43.516Z,16.70
2023-05-09T23:15:47.491Z,16.60
2023-05-09T23:18:49.762Z,16.60
2023-05-09T23:21:52.037Z,16.70
2023-05-09T23:24:54.166Z,16.60
2023-05-09T23:27:56.291Z,16.50
2023-05-09T23:30:58.599Z,16.50
2023-05-09T23:34:00.681Z,16.50
2023-05-09T23:37:04.398Z,16.50
2023-05-09T23:40:07.237Z,16.50
2023-05-09T23:43:09.338Z,16.50
2023-05-09T23:46:11.528Z,16.50
2023-05-09T23:49:15.696Z,16.40
2023-05-09T23:52:17.824Z,16.40
2023-05-09T23:55:20.331Z,16.40
2023-05-09T23:58:23.079Z,16.50
